createdAt,value
2018-07-25T04:46:20.884Z,3064
2018-07-25T04:47:28.564Z,3256
2018-07-25T04:48:34.137Z,3508
2018-07-25T05:35:22.809Z,15104
2018-07-25T05:37:47.411Z,16192
2018-07-25T05:38:36.243Z,16704
2018-07-25T06:02:01.038Z,22464
2018-07-25T06:11:33.101Z,26976
2018-07-25T06:12:13.747Z,26464
2018-07-25T06:12:54.952Z,26944
2018-07-25T06:13:37.096Z,27008
2018-07-25T06:14:16.991Z,27552
2018-07-25T06:16:55.077Z,27520
2018-07-25T06:21:23.333Z,28320
2018-07-25T06:22:03.181Z,28064
2018-07-25T06:22:43.836Z,28512
2018-07-25T06:23:24.533Z,28960
2018-07-25T06:24:05.200Z,28992
2018-07-25T06:24:46.397Z,29184
2018-07-25T06:25:27.181Z,29536
2018-07-25T06:26:10.120Z,30080
2018-07-25T06:26:50.881Z,29728
2018-07-25T06:27:31.671Z,29504
2018-07-25T06:28:16.823Z,30048
2018-07-25T06:28:59.669Z,31488
2018-07-25T06:29:40.855Z,32352
2018-07-25T06:30:21.377Z,33024
2018-07-25T06:31:04.043Z,34816
2018-07-25T06:31:45.218Z,35648
2018-07-25T06:32:26.004Z,35200
2018-07-25T06:33:08.317Z,33632
2018-07-25T06:33:50.409Z,32448
2018-07-25T06:34:30.959Z,30240
2018-07-25T06:47:37.458Z,22464
2018-07-25T06:51:14.029Z,21280
2018-07-25T06:55:21.806Z,17344
2018-07-25T07:20:01.197Z,21760
2018-07-25T07:20:45.689Z,20384
2018-07-25T07:21:29.180Z,19552
2018-07-25T07:22:10.092Z,19360
2018-07-25T07:22:54.386Z,19296
2018-07-25T07:23:45.283Z,19104
2018-07-25T07:25:48.092Z,19424
2018-07-25T07:26:30.090Z,19104
2018-07-25T07:27:19.533Z,17696
2018-07-25T07:28:04.591Z,17312
2018-07-25T07:28:46.126Z,17408
2018-07-25T07:29:30.278Z,17056
2018-07-25T07:30:10.904Z,16768
2018-07-25T07:30:55.922Z,16640
2018-07-25T07:31:36.206Z,16276
2018-07-25T07:32:51.685Z,15908
2018-07-25T07:33:46.717Z,13676
2018-07-25T07:35:50.237Z,7916
2018-07-25T07:37:46.813Z,7528
2018-07-25T07:38:27.576Z,7384
2018-07-25T07:39:10.275Z,7244
2018-07-25T07:40:47.500Z,7092
2018-07-25T07:54:42.761Z,6008
2018-07-25T07:58:38.757Z,5844
2018-07-25T07:59:20.267Z,5824
2018-07-25T08:00:00.614Z,5804
2018-07-25T08:00:41.782Z,5776
2018-07-25T08:20:08.839Z,4896
2018-07-25T08:22:25.149Z,4816
2018-07-25T08:24:31.028Z,4732
2018-07-25T08:25:18.263Z,4704
2018-07-25T08:26:42.094Z,4644
2018-07-25T08:27:23.378Z,4620
2018-07-25T08:28:04.422Z,4596
2018-07-25T08:30:59.594Z,4508
2018-07-25T08:31:41.101Z,4484
2018-07-25T08:32:23.735Z,4448
2018-07-25T08:33:06.685Z,4420
2018-07-25T08:33:47.387Z,4416
2018-07-25T08:34:28.000Z,4396
2018-07-25T08:35:10.998Z,4372
2018-07-25T08:36:06.471Z,4344
2018-07-25T08:36:47.379Z,4316
2018-07-25T08:37:29.254Z,4284
2018-07-25T08:39:46.373Z,4236
2018-07-25T08:40:30.321Z,4224
2018-07-25T08:41:11.480Z,4216
2018-07-25T08:41:53.952Z,4156
2018-07-25T08:42:38.562Z,4184
2018-07-25T08:43:19.455Z,4184
2018-07-25T08:44:00.418Z,4188
2018-07-25T08:44:43.762Z,4180
2018-07-25T08:45:37.434Z,4168
2018-07-25T08:48:25.357Z,4092
2018-07-25T08:49:05.905Z,4072
2018-07-25T08:49:48.722Z,4064
2018-07-25T08:50:54.190Z,4044
2018-07-25T08:51:35.707Z,4020
2018-07-25T08:52:16.395Z,4004
2018-07-25T08:54:24.840Z,3976
2018-07-25T08:55:05.981Z,3956
2018-07-25T08:55:47.769Z,3948
2018-07-25T08:58:01.379Z,3912
2018-07-25T09:03:43.830Z,3828
2018-07-25T09:04:26.740Z,3812
2018-07-25T09:07:34.908Z,3748
2018-07-25T09:08:15.500Z,3728
2018-07-25T09:08:56.032Z,3712
2018-07-25T09:09:40.529Z,3696
2018-07-25T09:10:21.959Z,3676
2018-07-25T09:11:03.684Z,3664
2018-07-25T09:11:45.117Z,3648
2018-07-25T09:12:29.058Z,3632
2018-07-25T09:13:08.945Z,3608
2018-07-25T09:13:52.448Z,3588
2018-07-25T09:16:47.356Z,3520
2018-07-25T09:19:31.744Z,3472
2018-07-25T09:20:14.095Z,3460
2018-07-25T09:20:54.602Z,3456
2018-07-25T09:21:35.162Z,3444
2018-07-25T09:22:16.034Z,3440
2018-07-25T09:23:02.184Z,3432
2018-07-25T09:23:40.955Z,3432
2018-07-25T09:24:21.437Z,3416
2018-07-25T09:25:14.260Z,3400
2018-07-25T09:25:57.438Z,3392
2018-07-25T09:26:37.969Z,3380
2018-07-25T09:27:18.427Z,3380
2018-07-25T09:27:58.941Z,3372
2018-07-25T09:29:41.012Z,3348
2018-07-25T09:30:21.550Z,3328
2018-07-25T09:31:04.275Z,3308
2018-07-25T09:31:46.605Z,3292
2018-07-25T09:32:28.473Z,3276
2018-07-25T09:33:09.068Z,3264
2018-07-25T09:33:50.501Z,3248
2018-07-25T09:34:32.111Z,3240
2018-07-25T09:35:14.146Z,3240
2018-07-25T09:35:55.553Z,3232
2018-07-25T09:36:37.613Z,3228
2018-07-25T09:37:17.236Z,3220
2018-07-25T09:37:57.700Z,3208
2018-07-25T09:38:38.346Z,3200
2018-07-25T09:39:18.973Z,3180
2018-07-25T09:39:59.486Z,3168
2018-07-25T09:40:41.101Z,3156
2018-07-25T09:41:22.871Z,3140
2018-07-25T09:42:04.587Z,3120
2018-07-25T09:42:45.620Z,3100
2018-07-25T09:43:25.287Z,3092
2018-07-25T09:44:06.963Z,3072
2018-07-25T09:44:47.474Z,3064
2018-07-25T09:45:28.328Z,3056
2018-07-25T09:46:09.454Z,3044
2018-07-25T09:46:54.219Z,3024
2018-07-25T09:47:34.105Z,3012
2018-07-25T09:48:14.496Z,3004
2018-07-25T09:48:55.582Z,2992
2018-07-25T09:49:37.105Z,2984
2018-07-25T09:50:17.435Z,2972
2018-07-25T09:50:58.002Z,2960
2018-07-25T09:51:38.395Z,2940
2018-07-25T09:52:19.421Z,2932
2018-07-25T09:52:59.989Z,2924
2018-07-25T09:53:40.424Z,2908
2018-07-25T09:54:21.587Z,2892
2018-07-25T09:55:01.575Z,2872
2018-07-25T09:55:42.143Z,2852
2018-07-25T09:56:24.835Z,2844
2018-07-25T09:57:05.243Z,2840
2018-07-25T09:57:45.947Z,2832
2018-07-25T09:58:26.599Z,2824
2018-07-25T09:59:07.375Z,2820
2018-07-25T09:59:48.072Z,2816
2018-07-25T10:00:29.446Z,2812
2018-07-25T10:01:10.822Z,2804
2018-07-25T10:01:52.190Z,2792
2018-07-25T10:02:31.679Z,2776
2018-07-25T10:03:13.182Z,2768
2018-07-25T10:03:55.378Z,2764
2018-07-25T10:43:11.029Z,2324
2018-07-25T10:43:51.605Z,2312
2018-07-25T10:44:32.270Z,2300
2018-07-25T10:45:12.640Z,2292
2018-07-25T10:45:53.519Z,2284
2018-07-25T10:46:33.879Z,2276
2018-07-25T10:47:14.161Z,2280
2018-07-25T10:51:33.449Z,2276
2018-07-25T10:52:14.099Z,2272
2018-07-25T10:52:55.384Z,2252
2018-07-25T10:53:35.811Z,2248
2018-07-25T10:54:16.437Z,2248
2018-07-25T10:55:01.195Z,2252
2018-07-25T10:55:43.587Z,2248
2018-07-25T10:56:24.320Z,2248
2018-07-25T10:57:04.829Z,2232
2018-07-25T10:57:45.889Z,2224
2018-07-25T10:58:27.628Z,2220
2018-07-25T10:59:08.506Z,2224
2018-07-25T10:59:48.823Z,2224
2018-07-25T11:01:52.126Z,2216
2018-07-25T11:02:34.229Z,2208
2018-07-25T11:03:14.360Z,2204
2018-07-25T11:03:57.605Z,2200
2018-07-25T11:04:37.910Z,2204
2018-07-25T11:05:18.427Z,2196
2018-07-25T11:06:03.025Z,2196
2018-07-25T11:06:52.965Z,2180
2018-07-25T11:07:36.136Z,2164
2018-07-25T11:08:17.103Z,2172
2018-07-25T11:08:58.308Z,2172
2018-07-25T11:09:39.090Z,2172
2018-07-25T11:10:20.587Z,2172
2018-07-25T11:11:01.638Z,2160
2018-07-25T11:11:42.056Z,2148
2018-07-25T11:12:22.589Z,2144
2018-07-25T11:13:03.218Z,2144
2018-07-25T11:13:44.163Z,2148
2018-07-25T11:14:25.370Z,2148
2018-07-25T11:15:07.170Z,2140
2018-07-25T11:15:47.609Z,2136
2018-07-25T11:16:28.282Z,2136
2018-07-25T11:17:08.771Z,2144
2018-07-25T11:17:50.467Z,2140
2018-07-25T11:18:30.969Z,2128
2018-07-25T11:19:11.511Z,2108
2018-07-25T11:19:53.505Z,2100
2018-07-25T11:20:34.203Z,2104
2018-07-25T11:21:14.858Z,2092
2018-07-25T11:21:55.441Z,2092
2018-07-25T11:22:35.806Z,2076
2018-07-25T11:23:16.417Z,2080
2018-07-25T11:23:57.651Z,2080
2018-07-25T11:24:54.632Z,2068
2018-07-25T11:25:35.646Z,2072
2018-07-25T11:26:16.390Z,2068
2018-07-25T11:26:56.860Z,2064
2018-07-25T11:27:37.354Z,2060
2018-07-25T11:28:18.890Z,2048
2018-07-25T11:28:59.533Z,2036
2018-07-25T11:29:40.198Z,2020
2018-07-25T11:31:59.173Z,1980
2018-07-25T11:32:40.611Z,1972
2018-07-25T11:33:20.930Z,1968
2018-07-25T11:34:02.093Z,1960
2018-07-25T11:34:42.532Z,1952
2018-07-25T11:35:23.135Z,1956
2018-07-25T11:36:03.769Z,1956
2018-07-25T11:36:44.351Z,1948
2018-07-25T11:41:07.869Z,1948
2018-07-25T11:41:48.315Z,1944
2018-07-25T11:42:28.752Z,1948
2018-07-25T11:43:09.181Z,1940
2018-07-25T11:43:49.979Z,1928
2018-07-25T11:44:31.799Z,1924
2018-07-25T11:45:12.587Z,1920
2018-07-25T11:45:53.143Z,1920
2018-07-25T11:46:34.501Z,1928
2018-07-25T11:47:15.156Z,1928
2018-07-25T11:47:55.915Z,1920
2018-07-25T11:48:36.425Z,1916
2018-07-25T11:49:16.826Z,1908
2018-07-25T11:51:31.381Z,1880
2018-07-25T11:52:11.819Z,1868
2018-07-25T11:52:52.399Z,1864
2018-07-25T11:55:20.178Z,1868
2018-07-25T11:57:54.260Z,1864
2018-07-25T12:02:26.432Z,1884
2018-07-25T12:03:06.851Z,1888
2018-07-25T12:03:47.287Z,1900
2018-07-25T12:04:27.881Z,1904
2018-07-25T12:05:08.483Z,1908
2018-07-25T12:05:49.755Z,1904
2018-07-25T12:06:30.285Z,1892
2018-07-25T12:07:11.546Z,1880
2018-07-25T12:07:51.983Z,1872
2018-07-25T12:08:33.487Z,1868
2018-07-25T12:09:13.896Z,1868
2018-07-25T12:09:54.333Z,1864
2018-07-25T12:10:35.842Z,1864
2018-07-25T12:11:17.861Z,1860
2018-07-25T12:11:58.348Z,1856
2018-07-25T12:12:40.400Z,1860
2018-07-25T12:13:21.669Z,1864
2018-07-25T12:14:02.834Z,1860
2018-07-25T12:14:43.259Z,1864
2018-07-25T12:15:23.701Z,1880
2018-07-25T12:16:04.113Z,1888
2018-07-25T12:16:44.543Z,1904
2018-07-25T12:17:25.042Z,1916
2018-07-25T12:18:06.593Z,1936
2018-07-25T12:18:46.329Z,1928
2018-07-25T12:19:26.755Z,1928
2018-07-25T12:20:07.246Z,1936
2018-07-25T12:20:47.852Z,1952
2018-07-25T12:21:28.159Z,1960
2018-07-25T12:22:09.264Z,1964
2018-07-25T12:22:49.723Z,1964
2018-07-25T12:23:30.702Z,1992
2018-07-25T12:24:11.050Z,2008
2018-07-25T12:24:51.615Z,2036
2018-07-25T12:25:32.087Z,2032
2018-07-25T12:26:13.168Z,2016
2018-07-25T12:26:54.585Z,1992
2018-07-25T12:27:34.989Z,1976
2018-07-25T12:28:15.475Z,1984
2018-07-25T12:28:56.242Z,2008
2018-07-25T12:29:36.889Z,2016
2018-07-25T12:30:17.388Z,2044
2018-07-25T12:30:59.276Z,2056
2018-07-25T12:31:39.763Z,2036
2018-07-25T12:32:20.485Z,2032
2018-07-25T12:33:00.803Z,2024
2018-07-25T12:33:42.942Z,2012
2018-07-25T12:36:24.214Z,2052
2018-07-25T12:37:05.992Z,2040
2018-07-25T12:37:45.910Z,2012
2018-07-25T12:38:29.876Z,2000
2018-07-25T12:39:10.583Z,1992
2018-07-25T12:39:51.060Z,1788
2018-07-25T12:40:31.528Z,1548
2018-07-25T12:41:15.698Z,2004
2018-07-25T12:41:56.204Z,2016
2018-07-25T12:42:36.897Z,2008
2018-07-25T12:43:17.193Z,2000
2018-07-25T12:43:58.047Z,2016
2018-07-25T12:44:38.501Z,2044
2018-07-25T12:45:19.179Z,2064
2018-07-25T12:45:59.637Z,2100
2018-07-25T12:46:40.804Z,2032
2018-07-25T12:47:21.207Z,2160
2018-07-25T12:48:02.318Z,2168
2018-07-25T12:48:42.335Z,2176
2018-07-25T12:49:23.923Z,2160
2018-07-25T12:50:04.423Z,2132
2018-07-25T12:50:45.922Z,2104
2018-07-25T12:51:26.099Z,2084
2018-07-25T12:52:07.541Z,2036
2018-07-25T12:52:50.367Z,1580
2018-07-25T12:53:29.967Z,1664
2018-07-25T12:54:11.647Z,1568
2018-07-25T12:54:52.127Z,1572
2018-07-25T12:55:35.032Z,1724
2018-07-25T12:56:15.823Z,1916
2018-07-25T12:56:56.853Z,1948
2018-07-25T12:57:38.862Z,1956
2018-07-25T12:58:20.021Z,1672
2018-07-25T12:59:00.311Z,1600
2018-07-25T12:59:40.610Z,1600
2018-07-25T13:00:21.368Z,1612
2018-07-25T13:01:02.808Z,1548
2018-07-25T13:01:42.772Z,1596
2018-07-25T13:02:23.174Z,1980
2018-07-25T13:03:04.975Z,1968
2018-07-25T13:03:45.612Z,1988
2018-07-25T13:04:26.307Z,2012
2018-07-25T13:05:08.356Z,2036
2018-07-25T13:05:47.595Z,2072
2018-07-25T13:06:29.329Z,2084
2018-07-25T13:07:09.686Z,2088
2018-07-25T13:07:50.349Z,2096
2018-07-25T13:08:30.919Z,2088
2018-07-25T13:09:11.721Z,2092
2018-07-25T13:09:52.194Z,2104
2018-07-25T13:13:51.906Z,2044
2018-07-25T13:14:32.845Z,2044
2018-07-25T13:15:13.304Z,2048
2018-07-25T13:15:54.952Z,2068
2018-07-25T13:16:36.732Z,2104
2018-07-25T13:17:18.030Z,2128
2018-07-25T13:17:58.559Z,2164
2018-07-25T13:18:39.953Z,2208
2018-07-25T13:19:21.025Z,2256
2018-07-25T13:20:01.549Z,2300
2018-07-25T13:20:42.077Z,2328
2018-07-25T13:21:22.556Z,2348
2018-07-25T13:22:03.516Z,2356
2018-07-25T13:22:44.003Z,2336
2018-07-25T13:23:25.455Z,2268
2018-07-25T13:27:05.616Z,2072
2018-07-25T13:27:46.366Z,2060
2018-07-25T13:28:27.400Z,2064
2018-07-25T13:29:07.488Z,2056
2018-07-25T13:29:48.048Z,2060
2018-07-25T13:30:28.430Z,2060
2018-07-25T13:31:08.928Z,2056
2018-07-25T13:31:49.359Z,2072
2018-07-25T13:32:29.839Z,2088
2018-07-25T13:33:10.314Z,2116
2018-07-25T13:33:50.930Z,2120
2018-07-25T13:34:31.428Z,2104
2018-07-25T13:35:15.641Z,2100
2018-07-25T13:35:56.473Z,2100
2018-07-25T13:36:37.642Z,2084
2018-07-25T13:37:18.340Z,2064
2018-07-25T13:37:59.321Z,2052
2018-07-25T13:38:39.751Z,2048
2018-07-25T13:39:20.711Z,2036
2018-07-25T13:40:01.720Z,2036
2018-07-25T13:40:42.925Z,2024
2018-07-25T13:41:23.380Z,2024
2018-07-25T13:42:03.830Z,1976
2018-07-25T13:42:44.293Z,1604
2018-07-25T13:43:24.839Z,1596
2018-07-25T13:44:05.356Z,1592
2018-07-25T13:44:45.936Z,1588
2018-07-25T13:45:26.377Z,1824
2018-07-25T13:46:07.045Z,1844
2018-07-25T13:46:47.453Z,1580
2018-07-25T13:47:28.042Z,1580
2018-07-25T13:48:08.815Z,1584
2018-07-25T13:48:50.325Z,1592
2018-07-25T13:49:30.835Z,1604
2018-07-25T13:50:11.526Z,1608
2018-07-25T13:50:52.386Z,1628
2018-07-25T13:51:34.385Z,1644
2018-07-25T13:52:14.744Z,1648
2018-07-25T13:52:55.527Z,1648
2018-07-25T13:53:36.167Z,1648
2018-07-25T13:54:16.592Z,1652
2018-07-25T13:54:57.507Z,1656
2018-07-25T13:55:38.755Z,1668
2018-07-25T13:56:19.683Z,1692
2018-07-25T13:57:01.826Z,1672
2018-07-25T13:57:42.853Z,1676
2018-07-25T13:58:23.161Z,1696
2018-07-25T13:59:04.395Z,1712
2018-07-25T13:59:45.001Z,1724
2018-07-25T14:00:25.889Z,1748
2018-07-25T14:01:07.179Z,1784
2018-07-25T14:01:47.676Z,1800
2018-07-25T14:02:28.288Z,1804
2018-07-25T14:03:08.475Z,1796
2018-07-25T14:03:50.281Z,1800
2018-07-25T14:04:31.483Z,1812
2018-07-25T14:05:11.849Z,1852
2018-07-25T14:05:52.539Z,1896
2018-07-25T14:06:32.819Z,1928
2018-07-25T14:07:13.750Z,1992
2018-07-25T14:07:53.770Z,2304
2018-07-25T14:08:34.175Z,2356
2018-07-25T14:09:14.621Z,2408
2018-07-25T14:09:55.468Z,2432
2018-07-25T14:10:37.776Z,2440
2018-07-25T14:11:18.652Z,2432
2018-07-25T14:11:59.740Z,2428
2018-07-25T14:12:40.243Z,2412
2018-07-25T14:13:20.715Z,2404
2018-07-25T14:14:01.381Z,2416
2018-07-25T14:14:47.759Z,2444
2018-07-25T14:15:28.183Z,2472
2018-07-25T14:16:08.615Z,2476
2018-07-25T14:16:49.836Z,2456
2018-07-25T14:17:30.303Z,2412
2018-07-25T14:18:10.934Z,2368
2018-07-25T14:18:51.245Z,2332
2018-07-25T14:19:31.629Z,2316
2018-07-25T14:20:12.061Z,2296
2018-07-25T14:20:52.510Z,2288
2018-07-25T14:21:32.963Z,2276
2018-07-25T14:22:15.075Z,2260
2018-07-25T14:22:55.385Z,2272
2018-07-25T14:23:36.236Z,2280
2018-07-25T14:24:16.979Z,2292
2018-07-25T14:24:58.011Z,2284
2018-07-25T14:25:38.562Z,2280
2018-07-25T14:26:19.816Z,2276
2018-07-25T14:27:02.919Z,2272
2018-07-25T14:27:43.289Z,2264
2018-07-25T14:28:25.558Z,2236
2018-07-25T14:29:06.064Z,2216
2018-07-25T14:29:49.236Z,2172
2018-07-25T14:43:22.140Z,2152
2018-07-25T14:44:02.438Z,2116
2018-07-25T14:44:43.807Z,2076
2018-07-25T14:46:57.922Z,1996
2018-07-25T14:47:38.741Z,1972
2018-07-25T14:48:19.206Z,1944
2018-07-25T14:48:59.710Z,1916
2018-07-25T14:49:40.235Z,1880
2018-07-25T14:50:20.669Z,1860
2018-07-25T14:51:01.162Z,1844
2018-07-25T14:51:42.290Z,1824
2018-07-25T14:52:22.858Z,1820
2018-07-25T14:53:03.409Z,1796
2018-07-25T14:53:44.565Z,1756
2018-07-25T14:54:26.085Z,1720
2018-07-25T14:55:06.773Z,1692
2018-07-25T14:55:47.318Z,1660
2018-07-25T14:56:28.682Z,1448
2018-07-25T14:57:09.124Z,1420
2018-07-25T14:57:49.572Z,1408
2018-07-25T14:58:30.385Z,1408
2018-07-25T14:59:11.504Z,1416
2018-07-25T14:59:52.758Z,1416
2018-07-25T15:00:33.247Z,1412
2018-07-25T15:01:13.923Z,1384
2018-07-25T15:01:55.338Z,1352
2018-07-25T15:02:36.161Z,1312
2018-07-25T15:03:16.584Z,1280
2018-07-25T15:03:57.092Z,1264
2018-07-25T15:04:37.404Z,1248
2018-07-25T15:05:18.927Z,1244
2018-07-25T15:05:59.287Z,1236
2018-07-25T15:06:39.625Z,1236
2018-07-25T15:07:20.183Z,1240
2018-07-25T15:08:00.887Z,1260
2018-07-25T15:08:41.363Z,1376
2018-07-25T15:09:22.364Z,1376
2018-07-25T15:10:03.079Z,1288
2018-07-25T15:10:43.630Z,1208
2018-07-25T15:11:24.088Z,1252
2018-07-25T15:12:04.756Z,1276
2018-07-25T15:12:46.000Z,1352
2018-07-25T15:13:25.913Z,1200
2018-07-25T15:14:06.264Z,1188
2018-07-25T15:14:46.736Z,1180
2018-07-25T15:15:27.950Z,1172
2018-07-25T15:16:08.768Z,1168
2018-07-25T15:16:49.340Z,1172
2018-07-25T15:17:29.562Z,1168
2018-07-25T15:18:10.271Z,1220
2018-07-25T15:18:50.913Z,1264
2018-07-25T15:19:31.705Z,1156
2018-07-25T15:20:12.221Z,1140
2018-07-25T15:20:53.019Z,1140
2018-07-25T15:21:33.754Z,1144
2018-07-25T15:22:14.288Z,1152
2018-07-25T15:22:54.873Z,1172
2018-07-25T15:23:35.265Z,1300
2018-07-25T15:24:15.756Z,1336
2018-07-25T15:24:56.670Z,1344
2018-07-25T15:25:37.077Z,1320
2018-07-25T15:26:17.547Z,1352
2018-07-25T15:26:57.974Z,1360
2018-07-25T15:27:38.626Z,1364
2018-07-25T15:28:20.162Z,1368
2018-07-25T15:29:00.596Z,1368
2018-07-25T15:29:42.353Z,1372
2018-07-25T15:30:22.865Z,1372
2018-07-25T15:31:03.444Z,1372
2018-07-25T15:31:44.030Z,1368
2018-07-25T15:32:24.514Z,1364
2018-07-25T15:33:04.965Z,1364
2018-07-25T15:33:45.466Z,1364
2018-07-25T15:34:26.611Z,1360
2018-07-25T15:35:07.098Z,1368
2018-07-25T15:35:47.713Z,1364
2018-07-25T15:36:29.144Z,1372
2018-07-25T15:37:10.428Z,1376
2018-07-25T15:37:50.819Z,1376
2018-07-25T15:38:32.249Z,1376
2018-07-25T15:39:12.966Z,1372
2018-07-25T15:39:53.664Z,1372
2018-07-25T15:40:34.340Z,1368
2018-07-25T15:41:16.177Z,1376
2018-07-25T15:41:56.997Z,1384
2018-07-25T15:42:37.404Z,1392
2018-07-25T15:43:17.955Z,1408
2018-07-25T15:43:58.688Z,1416
2018-07-25T15:44:39.351Z,1416
2018-07-25T15:45:19.788Z,1416
2018-07-25T15:46:00.201Z,1408
2018-07-25T15:46:40.610Z,1400
2018-07-25T15:47:21.091Z,1388
2018-07-25T15:48:02.203Z,1376
2018-07-25T15:48:42.633Z,1372
2018-07-25T15:49:23.081Z,1364
2018-07-25T15:50:03.660Z,1364
2018-07-25T15:50:45.540Z,1364
2018-07-25T15:51:26.294Z,1364
2018-07-25T15:52:06.768Z,1368
2018-07-25T15:52:47.412Z,1368
2018-07-25T15:53:27.933Z,1368
2018-07-25T15:54:09.232Z,1364
2018-07-25T15:54:50.029Z,1356
2018-07-25T15:55:30.756Z,1352
2018-07-25T15:56:10.609Z,1348
2018-07-25T15:56:51.365Z,1344
2018-07-25T15:57:31.546Z,1344
2018-07-25T15:58:12.014Z,1344
2018-07-25T15:58:52.574Z,1348
2018-07-25T15:59:33.252Z,1348
2018-07-25T16:00:14.279Z,1348
2018-07-25T16:00:55.663Z,1352
2018-07-25T16:01:36.537Z,1356
2018-07-25T16:02:16.874Z,1364
2018-07-25T16:02:57.296Z,1364
2018-07-25T16:03:37.723Z,1372
2018-07-25T16:04:18.344Z,1368
2018-07-25T16:05:00.349Z,1364
2018-07-25T16:05:46.043Z,1360
2018-07-25T16:53:16.372Z,1244
2018-07-25T16:57:17.578Z,1200
2018-07-25T16:57:58.111Z,1196
2018-07-25T16:58:38.541Z,1188
2018-07-25T16:59:19.078Z,1176
2018-07-25T16:59:59.545Z,1168
2018-07-25T17:00:39.852Z,1152
2018-07-25T17:01:22.087Z,1144
2018-07-25T17:02:02.297Z,1128
2018-07-25T17:02:42.786Z,1120
2018-07-25T17:03:23.124Z,1116
2018-07-25T17:04:03.539Z,1112
2018-07-25T17:04:44.747Z,1112
2018-07-25T17:05:25.261Z,1112
2018-07-25T17:06:05.618Z,1116
2018-07-25T17:06:46.308Z,1120
2018-07-25T17:07:27.254Z,1124
2018-07-25T17:08:08.537Z,1124
2018-07-25T17:08:48.940Z,1124
2018-07-25T17:09:29.414Z,1120
2018-07-25T17:10:09.869Z,1112
2018-07-25T17:10:50.351Z,1096
2018-07-25T17:11:30.757Z,1084
2018-07-25T17:12:11.731Z,1076
2018-07-25T17:12:52.450Z,1064
2018-07-25T17:13:33.123Z,1048
2018-07-25T17:14:14.508Z,1036
2018-07-25T17:14:55.030Z,1028
2018-07-25T17:15:35.583Z,1024
2018-07-25T17:16:15.859Z,1024
2018-07-25T17:16:56.313Z,1020
2018-07-25T17:17:36.784Z,1020
2018-07-25T17:18:17.327Z,1024
2018-07-25T17:18:58.554Z,1020
2018-07-25T17:19:38.980Z,1012
2018-07-25T17:20:19.403Z,1004
2018-07-25T17:20:59.843Z,988
2018-07-25T17:21:40.784Z,968
2018-07-25T17:22:21.303Z,948
2018-07-25T17:23:01.840Z,932
2018-07-25T17:23:42.338Z,912
2018-07-25T17:24:22.764Z,904
2018-07-25T17:25:03.162Z,896
2018-07-25T17:25:44.914Z,892
2018-07-25T17:26:25.343Z,888
2018-07-25T17:27:05.924Z,884
2018-07-25T17:27:46.380Z,876
2018-07-25T17:28:26.731Z,868
2018-07-25T17:29:07.088Z,860
2018-07-25T17:29:47.495Z,848
2018-07-25T17:30:27.931Z,840
2018-07-25T17:31:08.414Z,828
2018-07-25T17:31:48.817Z,816
2018-07-25T17:32:29.801Z,808
2018-07-25T17:33:11.557Z,796
2018-07-25T17:33:51.931Z,784
2018-07-25T17:34:32.381Z,780
2018-07-25T17:35:12.814Z,768
2018-07-25T17:35:53.273Z,760
2018-07-25T17:36:33.819Z,752
2018-07-25T17:37:14.147Z,740
2018-07-25T17:37:54.618Z,736
2018-07-25T17:38:35.058Z,728
2018-07-25T17:39:15.433Z,728
2018-07-25T17:39:56.019Z,724
2018-07-25T17:40:36.413Z,720
2018-07-25T17:41:16.856Z,724
2018-07-25T17:41:58.325Z,720
2018-07-25T17:42:38.821Z,716
2018-07-25T17:43:20.174Z,716
2018-07-25T17:44:01.138Z,712
2018-07-25T17:44:41.646Z,708
2018-07-25T17:45:22.349Z,704
2018-07-25T17:46:02.785Z,704
2018-07-25T17:46:43.267Z,700
2018-07-25T17:47:23.724Z,692
2018-07-25T17:48:04.179Z,684
2018-07-25T17:48:45.231Z,672
2018-07-25T17:49:25.872Z,660
2018-07-25T17:50:06.589Z,652
2018-07-25T17:50:46.854Z,640
2018-07-25T17:51:27.971Z,632
2018-07-25T17:52:09.098Z,628
2018-07-25T17:52:49.566Z,624
2018-07-25T17:53:30.590Z,624
2018-07-25T17:54:10.938Z,616
2018-07-25T17:54:51.803Z,612
2018-07-25T17:55:32.243Z,608
2018-07-25T17:56:12.657Z,600
2018-07-25T17:56:53.173Z,592
2018-07-25T17:57:34.044Z,588
2018-07-25T17:58:14.649Z,584
2018-07-25T17:58:55.185Z,576
2018-07-25T17:59:35.641Z,568
2018-07-25T18:00:16.198Z,564
2018-07-25T18:00:56.640Z,560
2018-07-25T18:01:37.456Z,552
2018-07-25T18:02:18.092Z,548
2018-07-25T18:02:58.405Z,540
2018-07-25T18:03:38.999Z,536
2018-07-25T18:04:19.363Z,532
2018-07-25T18:04:59.778Z,528
2018-07-25T18:05:42.107Z,520
2018-07-25T18:06:22.456Z,508
2018-07-25T18:07:02.944Z,500
2018-07-25T18:07:43.384Z,492
2018-07-25T18:08:23.914Z,484
2018-07-25T18:09:05.023Z,484
2018-07-25T18:09:45.449Z,476
2018-07-25T18:10:25.869Z,472
2018-07-25T18:11:06.310Z,468
2018-07-25T18:11:46.804Z,464
2018-07-25T18:12:27.640Z,460
2018-07-25T18:13:08.027Z,456
2018-07-25T18:13:48.550Z,456
2018-07-25T18:14:29.045Z,452
2018-07-25T18:15:09.697Z,452
2018-07-25T18:15:50.850Z,448
2018-07-25T18:16:32.338Z,440
2018-07-25T18:17:12.793Z,436
2018-07-25T18:17:53.523Z,432
2018-07-25T18:18:33.900Z,424
2018-07-25T18:19:15.221Z,416
2018-07-25T18:19:56.564Z,412
2018-07-25T18:20:37.405Z,404
2018-07-25T18:21:17.913Z,400
2018-07-25T18:21:58.302Z,396
2018-07-25T18:22:38.673Z,396
2018-07-25T18:23:19.132Z,392
2018-07-25T18:23:59.656Z,384
2018-07-25T18:24:40.206Z,380
2018-07-25T18:25:20.652Z,368
2018-07-25T18:26:01.099Z,364
2018-07-25T18:26:41.871Z,356
2018-07-25T18:27:22.358Z,348
2018-07-25T18:28:02.938Z,344
2018-07-25T18:28:43.362Z,340
2018-07-25T18:29:24.606Z,328
2018-07-25T18:30:05.633Z,324
2018-07-25T18:30:46.420Z,320
2018-07-25T18:31:26.937Z,312
2018-07-25T18:32:07.472Z,308
2018-07-25T18:32:47.843Z,308
2018-07-25T18:33:28.716Z,300
2018-07-25T18:34:09.074Z,300
2018-07-25T18:34:49.768Z,292
2018-07-25T18:35:29.962Z,292
2018-07-25T18:36:10.389Z,284
2018-07-25T18:36:51.350Z,284
2018-07-25T18:37:31.804Z,276
2018-07-25T18:38:12.375Z,272
2018-07-25T18:38:52.981Z,268
2018-07-25T18:39:33.417Z,260
2018-07-25T18:40:14.320Z,252
2018-07-25T18:40:54.780Z,248
2018-07-25T18:41:35.313Z,240
2018-07-25T18:42:16.840Z,232
2018-07-25T18:42:57.604Z,228
2018-07-25T18:43:38.172Z,224
2018-07-25T18:44:19.543Z,220
2018-07-25T18:44:59.978Z,216
2018-07-25T18:45:40.470Z,208
2018-07-25T18:46:20.923Z,208
2018-07-25T18:47:01.384Z,200
2018-07-25T18:47:41.831Z,196
2018-07-25T18:48:22.230Z,196
2018-07-25T18:49:02.644Z,188
2018-07-25T18:49:43.143Z,184
2018-07-25T18:50:24.174Z,180
2018-07-25T18:51:05.501Z,176
2018-07-25T18:51:45.953Z,172
2018-07-25T18:52:26.444Z,168
2018-07-25T18:53:06.856Z,160
2018-07-25T18:53:49.275Z,160
2018-07-25T18:54:29.718Z,156
2018-07-25T18:55:10.539Z,152
2018-07-25T18:55:51.069Z,148
2018-07-25T18:56:31.761Z,140
2018-07-25T18:57:12.238Z,136
2018-07-25T18:57:52.727Z,132
2018-07-25T18:58:33.290Z,132
2018-07-25T18:59:13.735Z,124
2018-07-25T18:59:54.273Z,124
2018-07-25T19:00:34.849Z,120
2018-07-25T19:01:15.273Z,116
2018-07-25T19:01:56.656Z,112
2018-07-25T19:02:37.560Z,108
2018-07-25T19:03:19.714Z,104
2018-07-25T19:03:59.339Z,100
2018-07-25T19:04:39.760Z,96
2018-07-25T19:05:20.237Z,96
2018-07-25T19:06:00.624Z,92
2018-07-25T19:06:41.120Z,88
2018-07-25T19:07:21.768Z,84
2018-07-25T19:08:02.075Z,80
2018-07-25T19:08:42.502Z,80
2018-07-25T19:09:23.560Z,72
2018-07-25T19:10:04.304Z,72
2018-07-25T19:10:45.147Z,68
2018-07-25T19:13:04.384Z,60
2018-07-25T19:13:47.566Z,56
2018-07-25T19:14:29.582Z,52
2018-07-25T19:15:09.973Z,48
2018-07-25T19:15:50.561Z,48
2018-07-25T19:16:31.066Z,48
2018-07-25T19:17:12.541Z,44
2018-07-25T19:17:53.263Z,40
2018-07-25T19:18:33.802Z,40
2018-07-25T19:19:16.938Z,40
2018-07-25T19:19:57.372Z,40
2018-07-25T19:20:38.505Z,36
2018-07-25T19:21:19.320Z,36
2018-07-25T19:21:59.899Z,32
2018-07-25T19:22:41.200Z,32
2018-07-25T19:23:21.793Z,32
2018-07-25T19:24:09.846Z,32